sensor_id;sensor_type;location;lat;lon;timestamp;P1;durP1;ratioP1;P2;durP2;ratioP2
38940;SDS011;43236;47.208;7.518;2023-02-21T00:02:18;15.18;;;4.72;;
38940;SDS011;43236;47.208;7.518;2023-02-21T00:05:23;10.50;;;4.32;;
38940;SDS011;43236;47.208;7.518;2023-02-21T00:11:33;12.13;;;4.95;;
38940;SDS011;43236;47.208;7.518;2023-02-21T00:17:42;11.38;;;4.78;;
38940;SDS011;43236;47.208;7.518;2023-02-21T00:20:48;13.10;;;4.55;;
38940;SDS011;43236;47.208;7.518;2023-02-21T00:23:54;9.05;;;4.40;;
38940;SDS011;43236;47.208;7.518;2023-02-21T00:26:58;8.93;;;4.10;;
38940;SDS011;43236;47.208;7.518;2023-02-21T00:30:03;13.50;;;4.80;;
38940;SDS011;43236;47.208;7.518;2023-02-21T00:33:09;11.80;;;4.68;;
38940;SDS011;43236;47.208;7.518;2023-02-21T00:36:14;10.32;;;4.70;;
38940;SDS011;43236;47.208;7.518;2023-02-21T00:39:21;12.20;;;4.22;;
38940;SDS011;43236;47.208;7.518;2023-02-21T00:42:25;8.57;;;4.20;;
38940;SDS011;43236;47.208;7.518;2023-02-21T00:45:30;11.75;;;4.07;;
38940;SDS011;43236;47.208;7.518;2023-02-21T00:48:35;15.38;;;4.32;;
38940;SDS011;43236;47.208;7.518;2023-02-21T00:51:39;9.95;;;4.45;;
38940;SDS011;43236;47.208;7.518;2023-02-21T00:54:45;13.10;;;4.53;;
38940;SDS011;43236;47.208;7.518;2023-02-21T00:57:49;8.43;;;4.35;;
38940;SDS011;43236;47.208;7.518;2023-02-21T01:00:53;11.38;;;4.40;;
38940;SDS011;43236;47.208;7.518;2023-02-21T01:03:58;8.82;;;4.50;;
38940;SDS011;43236;47.208;7.518;2023-02-21T01:07:03;12.30;;;4.70;;
38940;SDS011;43236;47.208;7.518;2023-02-21T01:10:09;9.13;;;4.65;;
38940;SDS011;43236;47.208;7.518;2023-02-21T01:13:13;10.52;;;4.43;;
38940;SDS011;43236;47.208;7.518;2023-02-21T01:16:18;13.05;;;4.97;;
38940;SDS011;43236;47.208;7.518;2023-02-21T01:19:22;14.05;;;4.43;;
38940;SDS011;43236;47.208;7.518;2023-02-21T01:22:29;9.50;;;4.55;;
38940;SDS011;43236;47.208;7.518;2023-02-21T01:25:35;9.23;;;4.28;;
38940;SDS011;43236;47.208;7.518;2023-02-21T01:28:40;10.60;;;4.15;;
38940;SDS011;43236;47.208;7.518;2023-02-21T01:31:44;6.97;;;4.13;;
38940;SDS011;43236;47.208;7.518;2023-02-21T01:34:49;14.00;;;4.28;;
38940;SDS011;43236;47.208;7.518;2023-02-21T01:40:59;7.60;;;4.00;;
38940;SDS011;43236;47.208;7.518;2023-02-21T01:44:06;9.90;;;4.40;;
38940;SDS011;43236;47.208;7.518;2023-02-21T01:47:30;11.55;;;4.22;;
38940;SDS011;43236;47.208;7.518;2023-02-21T01:50:35;9.82;;;4.07;;
38940;SDS011;43236;47.208;7.518;2023-02-21T01:53:39;9.05;;;3.90;;
38940;SDS011;43236;47.208;7.518;2023-02-21T01:56:46;10.45;;;4.05;;
38940;SDS011;43236;47.208;7.518;2023-02-21T01:59:52;9.27;;;4.60;;
38940;SDS011;43236;47.208;7.518;2023-02-21T02:03:00;8.13;;;4.15;;
38940;SDS011;43236;47.208;7.518;2023-02-21T02:06:08;8.40;;;4.55;;
38940;SDS011;43236;47.208;7.518;2023-02-21T02:09:16;8.93;;;4.03;;
38940;SDS011;43236;47.208;7.518;2023-02-21T02:12:27;10.85;;;4.72;;
38940;SDS011;43236;47.208;7.518;2023-02-21T02:15:40;14.90;;;4.53;;
38940;SDS011;43236;47.208;7.518;2023-02-21T02:18:45;8.88;;;4.50;;
38940;SDS011;43236;47.208;7.518;2023-02-21T02:25:12;9.35;;;3.97;;
38940;SDS011;43236;47.208;7.518;2023-02-21T02:28:20;8.00;;;4.28;;
38940;SDS011;43236;47.208;7.518;2023-02-21T02:31:30;10.20;;;4.70;;
38940;SDS011;43236;47.208;7.518;2023-02-21T02:34:37;11.35;;;4.10;;
38940;SDS011;43236;47.208;7.518;2023-02-21T02:37:34;9.32;;;4.43;;
38940;SDS011;43236;47.208;7.518;2023-02-21T02:40:27;9.50;;;4.40;;
38940;SDS011;43236;47.208;7.518;2023-02-21T02:43:21;8.90;;;3.88;;
38940;SDS011;43236;47.208;7.518;2023-02-21T02:46:16;8.80;;;4.15;;
38940;SDS011;43236;47.208;7.518;2023-02-21T02:49:07;7.47;;;4.10;;
38940;SDS011;43236;47.208;7.518;2023-02-21T02:52:03;8.98;;;3.85;;
38940;SDS011;43236;47.208;7.518;2023-02-21T02:54:56;9.27;;;4.07;;
38940;SDS011;43236;47.208;7.518;2023-02-21T02:57:44;9.20;;;4.22;;
38940;SDS011;43236;47.208;7.518;2023-02-21T03:00:33;8.65;;;4.35;;
38940;SDS011;43236;47.208;7.518;2023-02-21T03:03:29;8.88;;;3.83;;
38940;SDS011;43236;47.208;7.518;2023-02-21T03:06:33;8.85;;;3.70;;
38940;SDS011;43236;47.208;7.518;2023-02-21T03:09:30;10.38;;;4.40;;
38940;SDS011;43236;47.208;7.518;2023-02-21T03:12:26;10.68;;;3.92;;
38940;SDS011;43236;47.208;7.518;2023-02-21T03:15:20;10.80;;;4.28;;
38940;SDS011;43236;47.208;7.518;2023-02-21T03:18:11;11.32;;;4.28;;
38940;SDS011;43236;47.208;7.518;2023-02-21T03:21:04;8.77;;;3.70;;
38940;SDS011;43236;47.208;7.518;2023-02-21T03:23:56;8.10;;;3.65;;
38940;SDS011;43236;47.208;7.518;2023-02-21T03:26:48;7.47;;;4.13;;
38940;SDS011;43236;47.208;7.518;2023-02-21T03:29:39;9.38;;;4.90;;
38940;SDS011;43236;47.208;7.518;2023-02-21T03:32:27;8.57;;;3.90;;
38940;SDS011;43236;47.208;7.518;2023-02-21T03:35:16;8.82;;;4.13;;
38940;SDS011;43236;47.208;7.518;2023-02-21T03:38:03;7.88;;;4.00;;
38940;SDS011;43236;47.208;7.518;2023-02-21T03:40:51;9.32;;;4.32;;
38940;SDS011;43236;47.208;7.518;2023-02-21T03:43:39;8.13;;;4.07;;
38940;SDS011;43236;47.208;7.518;2023-02-21T03:46:26;8.15;;;3.97;;
38940;SDS011;43236;47.208;7.518;2023-02-21T03:49:13;7.07;;;3.80;;
38940;SDS011;43236;47.208;7.518;2023-02-21T03:52:00;11.65;;;4.25;;
38940;SDS011;43236;47.208;7.518;2023-02-21T03:54:47;8.68;;;3.65;;
38940;SDS011;43236;47.208;7.518;2023-02-21T03:57:34;8.57;;;3.90;;
38940;SDS011;43236;47.208;7.518;2023-02-21T04:00:23;7.70;;;3.70;;
38940;SDS011;43236;47.208;7.518;2023-02-21T04:03:10;8.63;;;3.78;;
38940;SDS011;43236;47.208;7.518;2023-02-21T04:05:58;8.27;;;3.83;;
38940;SDS011;43236;47.208;7.518;2023-02-21T04:08:45;6.43;;;3.40;;
38940;SDS011;43236;47.208;7.518;2023-02-21T04:11:32;8.10;;;3.70;;
38940;SDS011;43236;47.208;7.518;2023-02-21T04:14:19;8.02;;;3.67;;
38940;SDS011;43236;47.208;7.518;2023-02-21T04:17:07;5.18;;;3.03;;
38940;SDS011;43236;47.208;7.518;2023-02-21T04:19:54;6.63;;;3.83;;
38940;SDS011;43236;47.208;7.518;2023-02-21T04:22:41;5.30;;;2.85;;
38940;SDS011;43236;47.208;7.518;2023-02-21T04:25:28;5.47;;;3.00;;
38940;SDS011;43236;47.208;7.518;2023-02-21T04:28:15;5.65;;;3.03;;
38940;SDS011;43236;47.208;7.518;2023-02-21T04:31:02;6.88;;;3.55;;
38940;SDS011;43236;47.208;7.518;2023-02-21T04:33:51;8.52;;;3.05;;
38940;SDS011;43236;47.208;7.518;2023-02-21T04:36:38;7.72;;;3.00;;
38940;SDS011;43236;47.208;7.518;2023-02-21T04:39:25;6.00;;;2.88;;
38940;SDS011;43236;47.208;7.518;2023-02-21T04:42:12;6.53;;;2.83;;
38940;SDS011;43236;47.208;7.518;2023-02-21T04:44:59;5.30;;;2.90;;
38940;SDS011;43236;47.208;7.518;2023-02-21T04:47:47;7.65;;;3.00;;
38940;SDS011;43236;47.208;7.518;2023-02-21T04:50:35;5.18;;;2.83;;
38940;SDS011;43236;47.208;7.518;2023-02-21T04:53:22;4.32;;;2.53;;
38940;SDS011;43236;47.208;7.518;2023-02-21T04:56:09;4.88;;;2.38;;
38940;SDS011;43236;47.208;7.518;2023-02-21T04:58:57;4.18;;;2.47;;
38940;SDS011;43236;47.208;7.518;2023-02-21T05:01:44;6.38;;;3.15;;
38940;SDS011;43236;47.208;7.518;2023-02-21T05:04:31;7.40;;;3.60;;
38940;SDS011;43236;47.208;7.518;2023-02-21T05:07:19;6.45;;;3.42;;
38940;SDS011;43236;47.208;7.518;2023-02-21T05:10:06;6.50;;;3.53;;
38940;SDS011;43236;47.208;7.518;2023-02-21T05:12:54;6.55;;;3.78;;
38940;SDS011;43236;47.208;7.518;2023-02-21T05:15:41;8.52;;;4.00;;
38940;SDS011;43236;47.208;7.518;2023-02-21T05:18:28;7.68;;;3.88;;
38940;SDS011;43236;47.208;7.518;2023-02-21T05:21:15;7.03;;;3.90;;
38940;SDS011;43236;47.208;7.518;2023-02-21T05:24:06;6.75;;;3.92;;
38940;SDS011;43236;47.208;7.518;2023-02-21T05:26:54;6.90;;;3.63;;
38940;SDS011;43236;47.208;7.518;2023-02-21T05:29:41;6.22;;;3.67;;
38940;SDS011;43236;47.208;7.518;2023-02-21T05:32:31;6.32;;;3.40;;
38940;SDS011;43236;47.208;7.518;2023-02-21T05:35:18;7.40;;;3.95;;
38940;SDS011;43236;47.208;7.518;2023-02-21T05:38:05;7.68;;;3.72;;
38940;SDS011;43236;47.208;7.518;2023-02-21T05:40:54;7.85;;;4.05;;
38940;SDS011;43236;47.208;7.518;2023-02-21T05:43:42;12.15;;;4.57;;
38940;SDS011;43236;47.208;7.518;2023-02-21T05:46:30;11.75;;;4.80;;
38940;SDS011;43236;47.208;7.518;2023-02-21T05:49:18;12.52;;;4.72;;
38940;SDS011;43236;47.208;7.518;2023-02-21T05:52:05;12.05;;;5.50;;
38940;SDS011;43236;47.208;7.518;2023-02-21T05:54:52;20.20;;;5.38;;
38940;SDS011;43236;47.208;7.518;2023-02-21T05:57:41;19.88;;;6.00;;
38940;SDS011;43236;47.208;7.518;2023-02-21T06:00:28;16.85;;;7.15;;
38940;SDS011;43236;47.208;7.518;2023-02-21T06:03:16;13.10;;;6.13;;
38940;SDS011;43236;47.208;7.518;2023-02-21T06:06:03;12.82;;;6.13;;
38940;SDS011;43236;47.208;7.518;2023-02-21T06:08:51;10.25;;;5.18;;
38940;SDS011;43236;47.208;7.518;2023-02-21T06:11:38;11.05;;;5.43;;
38940;SDS011;43236;47.208;7.518;2023-02-21T06:14:27;9.23;;;4.80;;
38940;SDS011;43236;47.208;7.518;2023-02-21T06:17:14;8.10;;;4.97;;
38940;SDS011;43236;47.208;7.518;2023-02-21T06:20:01;9.65;;;5.53;;
38940;SDS011;43236;47.208;7.518;2023-02-21T06:22:48;9.20;;;4.63;;
38940;SDS011;43236;47.208;7.518;2023-02-21T06:25:35;10.85;;;5.35;;
38940;SDS011;43236;47.208;7.518;2023-02-21T06:28:26;11.20;;;5.32;;
38940;SDS011;43236;47.208;7.518;2023-02-21T06:31:15;11.80;;;5.72;;
38940;SDS011;43236;47.208;7.518;2023-02-21T06:34:03;10.70;;;5.30;;
38940;SDS011;43236;47.208;7.518;2023-02-21T06:36:50;8.68;;;4.85;;
38940;SDS011;43236;47.208;7.518;2023-02-21T06:39:38;9.98;;;5.35;;
38940;SDS011;43236;47.208;7.518;2023-02-21T06:42:25;9.98;;;5.53;;
38940;SDS011;43236;47.208;7.518;2023-02-21T06:45:14;8.98;;;5.18;;
38940;SDS011;43236;47.208;7.518;2023-02-21T06:48:02;9.95;;;5.25;;
38940;SDS011;43236;47.208;7.518;2023-02-21T06:50:49;9.68;;;5.30;;
38940;SDS011;43236;47.208;7.518;2023-02-21T06:53:36;11.68;;;5.20;;
38940;SDS011;43236;47.208;7.518;2023-02-21T06:56:24;9.02;;;4.97;;
38940;SDS011;43236;47.208;7.518;2023-02-21T06:59:11;8.63;;;5.15;;
38940;SDS011;43236;47.208;7.518;2023-02-21T07:01:58;9.77;;;5.35;;
38940;SDS011;43236;47.208;7.518;2023-02-21T07:04:48;11.45;;;6.22;;
38940;SDS011;43236;47.208;7.518;2023-02-21T07:07:35;13.52;;;6.30;;
38940;SDS011;43236;47.208;7.518;2023-02-21T07:10:22;10.60;;;6.05;;
38940;SDS011;43236;47.208;7.518;2023-02-21T07:13:09;12.07;;;6.30;;
38940;SDS011;43236;47.208;7.518;2023-02-21T07:15:56;10.75;;;5.95;;
38940;SDS011;43236;47.208;7.518;2023-02-21T07:18:43;12.13;;;5.97;;
38940;SDS011;43236;47.208;7.518;2023-02-21T07:21:32;11.85;;;6.03;;
38940;SDS011;43236;47.208;7.518;2023-02-21T07:24:19;12.55;;;6.38;;
38940;SDS011;43236;47.208;7.518;2023-02-21T07:27:06;12.50;;;6.25;;
38940;SDS011;43236;47.208;7.518;2023-02-21T07:29:53;19.15;;;9.05;;
38940;SDS011;43236;47.208;7.518;2023-02-21T07:32:40;17.98;;;7.85;;
38940;SDS011;43236;47.208;7.518;2023-02-21T07:35:27;18.65;;;8.45;;
38940;SDS011;43236;47.208;7.518;2023-02-21T07:38:19;25.45;;;9.88;;
38940;SDS011;43236;47.208;7.518;2023-02-21T07:41:07;24.20;;;11.32;;
38940;SDS011;43236;47.208;7.518;2023-02-21T07:43:54;21.98;;;10.00;;
38940;SDS011;43236;47.208;7.518;2023-02-21T07:46:41;26.58;;;11.27;;
38940;SDS011;43236;47.208;7.518;2023-02-21T07:49:30;25.15;;;10.70;;
38940;SDS011;43236;47.208;7.518;2023-02-21T07:52:18;24.92;;;11.20;;
38940;SDS011;43236;47.208;7.518;2023-02-21T07:55:07;22.50;;;12.20;;
38940;SDS011;43236;47.208;7.518;2023-02-21T07:57:56;22.10;;;11.23;;
38940;SDS011;43236;47.208;7.518;2023-02-21T08:00:43;22.13;;;11.25;;
38940;SDS011;43236;47.208;7.518;2023-02-21T08:03:30;24.48;;;11.30;;
38940;SDS011;43236;47.208;7.518;2023-02-21T08:06:18;20.15;;;10.18;;
38940;SDS011;43236;47.208;7.518;2023-02-21T08:09:05;18.55;;;9.68;;
38940;SDS011;43236;47.208;7.518;2023-02-21T08:11:53;17.52;;;9.95;;
38940;SDS011;43236;47.208;7.518;2023-02-21T08:14:40;19.63;;;10.32;;
38940;SDS011;43236;47.208;7.518;2023-02-21T08:17:27;20.70;;;10.63;;
38940;SDS011;43236;47.208;7.518;2023-02-21T08:20:14;18.55;;;10.70;;
38940;SDS011;43236;47.208;7.518;2023-02-21T08:23:01;16.88;;;9.98;;
38940;SDS011;43236;47.208;7.518;2023-02-21T08:25:49;17.30;;;10.77;;
38940;SDS011;43236;47.208;7.518;2023-02-21T08:28:37;19.00;;;10.23;;
38940;SDS011;43236;47.208;7.518;2023-02-21T08:31:24;17.50;;;11.13;;
38940;SDS011;43236;47.208;7.518;2023-02-21T08:34:11;17.40;;;10.95;;
38940;SDS011;43236;47.208;7.518;2023-02-21T08:36:58;20.77;;;11.48;;
38940;SDS011;43236;47.208;7.518;2023-02-21T08:39:46;18.67;;;10.98;;
38940;SDS011;43236;47.208;7.518;2023-02-21T08:42:34;20.23;;;11.60;;
38940;SDS011;43236;47.208;7.518;2023-02-21T08:45:22;24.05;;;13.00;;
38940;SDS011;43236;47.208;7.518;2023-02-21T08:48:11;21.65;;;12.32;;
38940;SDS011;43236;47.208;7.518;2023-02-21T08:50:58;22.17;;;12.63;;
38940;SDS011;43236;47.208;7.518;2023-02-21T08:53:45;25.10;;;12.52;;
38940;SDS011;43236;47.208;7.518;2023-02-21T08:56:32;22.50;;;12.18;;
38940;SDS011;43236;47.208;7.518;2023-02-21T08:59:20;22.80;;;12.68;;
38940;SDS011;43236;47.208;7.518;2023-02-21T09:02:13;26.83;;;13.07;;
38940;SDS011;43236;47.208;7.518;2023-02-21T09:05:01;25.80;;;13.07;;
38940;SDS011;43236;47.208;7.518;2023-02-21T09:07:48;24.35;;;13.23;;
38940;SDS011;43236;47.208;7.518;2023-02-21T09:10:36;20.75;;;12.15;;
38940;SDS011;43236;47.208;7.518;2023-02-21T09:13:31;24.80;;;13.43;;
38940;SDS011;43236;47.208;7.518;2023-02-21T09:16:18;22.38;;;13.07;;
38940;SDS011;43236;47.208;7.518;2023-02-21T09:19:06;21.05;;;12.65;;
38940;SDS011;43236;47.208;7.518;2023-02-21T09:21:54;24.35;;;12.13;;
38940;SDS011;43236;47.208;7.518;2023-02-21T09:24:41;20.70;;;12.00;;
38940;SDS011;43236;47.208;7.518;2023-02-21T09:27:28;24.02;;;11.93;;
38940;SDS011;43236;47.208;7.518;2023-02-21T09:30:22;19.52;;;11.68;;
38940;SDS011;43236;47.208;7.518;2023-02-21T09:33:11;25.63;;;11.95;;
38940;SDS011;43236;47.208;7.518;2023-02-21T09:36:01;21.52;;;12.65;;
38940;SDS011;43236;47.208;7.518;2023-02-21T09:38:48;25.83;;;12.27;;
38940;SDS011;43236;47.208;7.518;2023-02-21T09:41:35;23.60;;;13.00;;
38940;SDS011;43236;47.208;7.518;2023-02-21T09:44:24;21.95;;;12.32;;
38940;SDS011;43236;47.208;7.518;2023-02-21T09:47:14;26.40;;;13.70;;
38940;SDS011;43236;47.208;7.518;2023-02-21T09:50:11;27.52;;;13.55;;
38940;SDS011;43236;47.208;7.518;2023-02-21T09:53:01;24.08;;;13.18;;
38940;SDS011;43236;47.208;7.518;2023-02-21T09:55:49;22.70;;;13.38;;
38940;SDS011;43236;47.208;7.518;2023-02-21T09:58:41;24.48;;;13.90;;
38940;SDS011;43236;47.208;7.518;2023-02-21T10:01:32;23.98;;;14.10;;
38940;SDS011;43236;47.208;7.518;2023-02-21T10:04:35;24.98;;;14.88;;
38940;SDS011;43236;47.208;7.518;2023-02-21T10:07:35;22.70;;;13.50;;
38940;SDS011;43236;47.208;7.518;2023-02-21T10:13:25;21.92;;;12.65;;
38940;SDS011;43236;47.208;7.518;2023-02-21T10:16:23;24.33;;;13.18;;
38940;SDS011;43236;47.208;7.518;2023-02-21T10:19:15;24.70;;;12.88;;
38940;SDS011;43236;47.208;7.518;2023-02-21T10:22:09;24.20;;;14.10;;
38940;SDS011;43236;47.208;7.518;2023-02-21T10:25:07;25.08;;;13.13;;
38940;SDS011;43236;47.208;7.518;2023-02-21T10:28:07;26.27;;;13.50;;
38940;SDS011;43236;47.208;7.518;2023-02-21T10:31:06;24.25;;;12.93;;
38940;SDS011;43236;47.208;7.518;2023-02-21T10:33:57;24.05;;;12.80;;
38940;SDS011;43236;47.208;7.518;2023-02-21T10:36:44;21.45;;;12.27;;
38940;SDS011;43236;47.208;7.518;2023-02-21T10:39:33;26.85;;;12.73;;
38940;SDS011;43236;47.208;7.518;2023-02-21T10:42:28;25.27;;;12.88;;
38940;SDS011;43236;47.208;7.518;2023-02-21T10:45:22;24.77;;;13.85;;
38940;SDS011;43236;47.208;7.518;2023-02-21T10:48:13;26.20;;;13.05;;
38940;SDS011;43236;47.208;7.518;2023-02-21T10:51:06;21.33;;;11.50;;
38940;SDS011;43236;47.208;7.518;2023-02-21T10:53:54;23.55;;;12.57;;
38940;SDS011;43236;47.208;7.518;2023-02-21T10:57:03;26.88;;;13.73;;
38940;SDS011;43236;47.208;7.518;2023-02-21T10:59:53;24.90;;;11.98;;
38940;SDS011;43236;47.208;7.518;2023-02-21T11:02:42;23.05;;;11.77;;
38940;SDS011;43236;47.208;7.518;2023-02-21T11:05:30;21.05;;;11.18;;
38940;SDS011;43236;47.208;7.518;2023-02-21T11:08:31;19.60;;;10.05;;
38940;SDS011;43236;47.208;7.518;2023-02-21T11:11:30;17.83;;;9.65;;
38940;SDS011;43236;47.208;7.518;2023-02-21T11:14:22;20.05;;;11.10;;
38940;SDS011;43236;47.208;7.518;2023-02-21T11:17:12;20.73;;;10.43;;
38940;SDS011;43236;47.208;7.518;2023-02-21T11:20:14;17.98;;;10.27;;
38940;SDS011;43236;47.208;7.518;2023-02-21T11:23:02;16.15;;;8.93;;
38940;SDS011;43236;47.208;7.518;2023-02-21T11:25:55;15.05;;;9.18;;
38940;SDS011;43236;47.208;7.518;2023-02-21T11:28:45;16.77;;;9.20;;
38940;SDS011;43236;47.208;7.518;2023-02-21T11:31:33;15.20;;;8.73;;
38940;SDS011;43236;47.208;7.518;2023-02-21T11:34:20;13.32;;;7.82;;
38940;SDS011;43236;47.208;7.518;2023-02-21T11:37:15;16.42;;;8.73;;
38940;SDS011;43236;47.208;7.518;2023-02-21T11:40:03;18.60;;;8.48;;
38940;SDS011;43236;47.208;7.518;2023-02-21T11:43:10;16.58;;;9.10;;
38940;SDS011;43236;47.208;7.518;2023-02-21T11:46:01;17.85;;;9.27;;
38940;SDS011;43236;47.208;7.518;2023-02-21T11:48:55;18.85;;;8.82;;
38940;SDS011;43236;47.208;7.518;2023-02-21T11:51:48;18.35;;;9.32;;
38940;SDS011;43236;47.208;7.518;2023-02-21T11:54:38;19.90;;;9.93;;
38940;SDS011;43236;47.208;7.518;2023-02-21T11:57:28;20.40;;;9.82;;
38940;SDS011;43236;47.208;7.518;2023-02-21T12:00:24;14.55;;;8.13;;
38940;SDS011;43236;47.208;7.518;2023-02-21T12:03:28;17.77;;;9.43;;
38940;SDS011;43236;47.208;7.518;2023-02-21T12:06:25;19.30;;;8.93;;
38940;SDS011;43236;47.208;7.518;2023-02-21T12:09:18;18.30;;;9.13;;
38940;SDS011;43236;47.208;7.518;2023-02-21T12:12:16;18.00;;;9.50;;
38940;SDS011;43236;47.208;7.518;2023-02-21T12:15:19;17.83;;;9.52;;
38940;SDS011;43236;47.208;7.518;2023-02-21T12:18:16;18.45;;;9.80;;
38940;SDS011;43236;47.208;7.518;2023-02-21T12:21:27;23.88;;;10.13;;
38940;SDS011;43236;47.208;7.518;2023-02-21T12:24:28;20.98;;;10.60;;
38940;SDS011;43236;47.208;7.518;2023-02-21T12:27:28;19.70;;;10.57;;
38940;SDS011;43236;47.208;7.518;2023-02-21T12:33:41;21.00;;;10.80;;
38940;SDS011;43236;47.208;7.518;2023-02-21T12:36:34;21.02;;;10.30;;
38940;SDS011;43236;47.208;7.518;2023-02-21T12:39:48;19.83;;;9.70;;
38940;SDS011;43236;47.208;7.518;2023-02-21T12:42:57;25.33;;;9.95;;
38940;SDS011;43236;47.208;7.518;2023-02-21T12:46:11;18.48;;;9.85;;
38940;SDS011;43236;47.208;7.518;2023-02-21T12:51:55;19.10;;;9.65;;
38940;SDS011;43236;47.208;7.518;2023-02-21T12:54:46;19.05;;;10.10;;
38940;SDS011;43236;47.208;7.518;2023-02-21T12:57:43;22.23;;;10.52;;
38940;SDS011;43236;47.208;7.518;2023-02-21T13:00:37;20.17;;;9.35;;
38940;SDS011;43236;47.208;7.518;2023-02-21T13:03:34;22.52;;;10.02;;
38940;SDS011;43236;47.208;7.518;2023-02-21T13:06:28;20.70;;;10.35;;
38940;SDS011;43236;47.208;7.518;2023-02-21T13:09:21;19.15;;;10.05;;
38940;SDS011;43236;47.208;7.518;2023-02-21T13:12:19;24.33;;;10.82;;
38940;SDS011;43236;47.208;7.518;2023-02-21T13:15:12;25.52;;;10.07;;
38940;SDS011;43236;47.208;7.518;2023-02-21T13:20:55;16.73;;;8.95;;
38940;SDS011;43236;47.208;7.518;2023-02-21T13:30:37;21.63;;;10.00;;
38940;SDS011;43236;47.208;7.518;2023-02-21T13:33:28;19.80;;;9.75;;
38940;SDS011;43236;47.208;7.518;2023-02-21T13:36:24;21.98;;;11.05;;
38940;SDS011;43236;47.208;7.518;2023-02-21T13:39:14;17.77;;;9.65;;
38940;SDS011;43236;47.208;7.518;2023-02-21T13:42:06;20.85;;;10.55;;
38940;SDS011;43236;47.208;7.518;2023-02-21T13:45:03;20.15;;;10.07;;
38940;SDS011;43236;47.208;7.518;2023-02-21T13:54:34;16.08;;;9.57;;
38940;SDS011;43236;47.208;7.518;2023-02-21T13:57:28;18.85;;;9.00;;
38940;SDS011;43236;47.208;7.518;2023-02-21T14:03:32;17.95;;;9.27;;
38940;SDS011;43236;47.208;7.518;2023-02-21T14:06:33;17.25;;;8.70;;
38940;SDS011;43236;47.208;7.518;2023-02-21T14:09:23;14.68;;;8.10;;
38940;SDS011;43236;47.208;7.518;2023-02-21T14:12:11;20.00;;;8.77;;
38940;SDS011;43236;47.208;7.518;2023-02-21T14:15:03;15.32;;;7.93;;
38940;SDS011;43236;47.208;7.518;2023-02-21T14:17:51;17.05;;;8.80;;
38940;SDS011;43236;47.208;7.518;2023-02-21T14:20:39;13.07;;;7.75;;
38940;SDS011;43236;47.208;7.518;2023-02-21T14:23:31;14.00;;;7.72;;
38940;SDS011;43236;47.208;7.518;2023-02-21T14:26:35;14.80;;;8.18;;
38940;SDS011;43236;47.208;7.518;2023-02-21T14:29:29;14.23;;;7.18;;
38940;SDS011;43236;47.208;7.518;2023-02-21T14:32:25;18.38;;;7.47;;
38940;SDS011;43236;47.208;7.518;2023-02-21T14:35:23;20.27;;;7.60;;
38940;SDS011;43236;47.208;7.518;2023-02-21T14:38:15;15.95;;;7.32;;
38940;SDS011;43236;47.208;7.518;2023-02-21T14:41:09;14.63;;;7.50;;
38940;SDS011;43236;47.208;7.518;2023-02-21T14:44:15;11.52;;;6.03;;
38940;SDS011;43236;47.208;7.518;2023-02-21T14:50:40;17.38;;;7.88;;
38940;SDS011;43236;47.208;7.518;2023-02-21T14:56:50;14.60;;;7.18;;
38940;SDS011;43236;47.208;7.518;2023-02-21T14:59:56;13.32;;;6.50;;
38940;SDS011;43236;47.208;7.518;2023-02-21T15:02:57;12.90;;;6.75;;
38940;SDS011;43236;47.208;7.518;2023-02-21T15:08:45;13.60;;;6.53;;
38940;SDS011;43236;47.208;7.518;2023-02-21T15:11:34;11.48;;;5.68;;
38940;SDS011;43236;47.208;7.518;2023-02-21T15:14:24;13.55;;;6.05;;
38940;SDS011;43236;47.208;7.518;2023-02-21T15:17:17;15.20;;;5.65;;
38940;SDS011;43236;47.208;7.518;2023-02-21T15:20:12;13.10;;;5.68;;
38940;SDS011;43236;47.208;7.518;2023-02-21T15:23:09;12.57;;;5.75;;
38940;SDS011;43236;47.208;7.518;2023-02-21T15:25:59;14.30;;;6.18;;
38940;SDS011;43236;47.208;7.518;2023-02-21T15:29:01;14.15;;;6.32;;
38940;SDS011;43236;47.208;7.518;2023-02-21T15:31:51;12.45;;;6.35;;
38940;SDS011;43236;47.208;7.518;2023-02-21T15:34:41;12.43;;;6.72;;
38940;SDS011;43236;47.208;7.518;2023-02-21T15:37:31;15.18;;;6.65;;
38940;SDS011;43236;47.208;7.518;2023-02-21T15:40:21;11.32;;;5.32;;
38940;SDS011;43236;47.208;7.518;2023-02-21T15:43:12;11.70;;;4.53;;
38940;SDS011;43236;47.208;7.518;2023-02-21T15:46:11;9.40;;;4.30;;
38940;SDS011;43236;47.208;7.518;2023-02-21T15:49:02;14.25;;;5.35;;
38940;SDS011;43236;47.208;7.518;2023-02-21T15:51:51;14.77;;;4.53;;
38940;SDS011;43236;47.208;7.518;2023-02-21T15:54:39;20.33;;;4.50;;
38940;SDS011;43236;47.208;7.518;2023-02-21T15:57:26;10.32;;;3.83;;
38940;SDS011;43236;47.208;7.518;2023-02-21T16:00:24;9.48;;;3.75;;
38940;SDS011;43236;47.208;7.518;2023-02-21T16:03:26;10.05;;;3.92;;
38940;SDS011;43236;47.208;7.518;2023-02-21T16:06:16;9.80;;;3.72;;
38940;SDS011;43236;47.208;7.518;2023-02-21T16:09:17;19.38;;;3.78;;
38940;SDS011;43236;47.208;7.518;2023-02-21T16:12:17;8.05;;;3.70;;
38940;SDS011;43236;47.208;7.518;2023-02-21T16:15:18;11.65;;;5.47;;
38940;SDS011;43236;47.208;7.518;2023-02-21T16:18:09;8.57;;;3.40;;
38940;SDS011;43236;47.208;7.518;2023-02-21T16:23:52;14.65;;;4.40;;
38940;SDS011;43236;47.208;7.518;2023-02-21T16:26:40;11.07;;;4.05;;
38940;SDS011;43236;47.208;7.518;2023-02-21T16:29:27;9.52;;;3.60;;
38940;SDS011;43236;47.208;7.518;2023-02-21T16:32:15;7.65;;;3.70;;
38940;SDS011;43236;47.208;7.518;2023-02-21T16:35:05;12.48;;;3.42;;
38940;SDS011;43236;47.208;7.518;2023-02-21T16:37:52;9.40;;;3.88;;
38940;SDS011;43236;47.208;7.518;2023-02-21T16:40:41;12.57;;;4.15;;
38940;SDS011;43236;47.208;7.518;2023-02-21T16:43:29;13.68;;;4.72;;
38940;SDS011;43236;47.208;7.518;2023-02-21T16:46:22;13.00;;;5.10;;
38940;SDS011;43236;47.208;7.518;2023-02-21T16:49:10;16.17;;;5.93;;
38940;SDS011;43236;47.208;7.518;2023-02-21T16:51:57;19.40;;;6.55;;
38940;SDS011;43236;47.208;7.518;2023-02-21T16:54:44;17.30;;;6.40;;
38940;SDS011;43236;47.208;7.518;2023-02-21T16:57:31;14.63;;;5.65;;
38940;SDS011;43236;47.208;7.518;2023-02-21T17:00:20;19.58;;;7.20;;
38940;SDS011;43236;47.208;7.518;2023-02-21T17:03:07;16.70;;;7.18;;
38940;SDS011;43236;47.208;7.518;2023-02-21T17:05:55;15.55;;;6.47;;
38940;SDS011;43236;47.208;7.518;2023-02-21T17:08:43;19.55;;;6.82;;
38940;SDS011;43236;47.208;7.518;2023-02-21T17:11:30;16.50;;;6.90;;
38940;SDS011;43236;47.208;7.518;2023-02-21T17:14:18;13.68;;;6.05;;
38940;SDS011;43236;47.208;7.518;2023-02-21T17:17:06;16.05;;;7.30;;
38940;SDS011;43236;47.208;7.518;2023-02-21T17:19:53;14.55;;;6.40;;
38940;SDS011;43236;47.208;7.518;2023-02-21T17:22:40;15.48;;;6.55;;
38940;SDS011;43236;47.208;7.518;2023-02-21T17:25:27;15.95;;;5.85;;
38940;SDS011;43236;47.208;7.518;2023-02-21T17:28:14;20.02;;;6.90;;
38940;SDS011;43236;47.208;7.518;2023-02-21T17:31:01;14.48;;;6.53;;
38940;SDS011;43236;47.208;7.518;2023-02-21T17:33:50;13.40;;;6.35;;
38940;SDS011;43236;47.208;7.518;2023-02-21T17:36:37;12.05;;;6.05;;
38940;SDS011;43236;47.208;7.518;2023-02-21T17:39:24;17.10;;;6.32;;
38940;SDS011;43236;47.208;7.518;2023-02-21T17:42:11;13.35;;;6.60;;
38940;SDS011;43236;47.208;7.518;2023-02-21T17:44:58;15.52;;;7.10;;
38940;SDS011;43236;47.208;7.518;2023-02-21T17:47:46;19.20;;;7.70;;
38940;SDS011;43236;47.208;7.518;2023-02-21T17:50:35;14.52;;;6.40;;
38940;SDS011;43236;47.208;7.518;2023-02-21T17:53:22;18.15;;;7.78;;
38940;SDS011;43236;47.208;7.518;2023-02-21T17:56:09;17.80;;;6.88;;
38940;SDS011;43236;47.208;7.518;2023-02-21T17:58:56;19.98;;;7.60;;
38940;SDS011;43236;47.208;7.518;2023-02-21T18:01:44;14.48;;;6.97;;